Time;durP1;ratioP1;P1;durP2;ratioP2;P2;SDS_P1;SDS_P2;PMS_P1;PMS_P2;Temp;Humidity;BMP_temperature;BMP_pressure;BME280_temperature;BME280_humidity;BME280_pressure;Samples;Min_cycle;Max_cycle;Signal;HPM_P1;HPM_P2
2023/01/09 00:00:11;;;;;;;2.40;1.60;;;;;;;-13.30;83.46;101777.47;10460496;28;20045;-77
2023/01/09 00:05:15;;;;;;;3.67;2.85;;;;;;;-13.28;84.00;101785.31;10439788;28;20068;-78
2023/01/09 00:10:18;;;;;;;2.92;1.75;;;;;;;-13.33;83.87;101771.56;10430047;28;20056;-77
2023/01/09 00:15:20;;;;;;;5.00;2.70;;;;;;;-13.34;84.35;101776.00;10443191;28;20045;-78
2023/01/09 00:20:23;;;;;;;3.45;2.38;;;;;;;-13.33;84.01;101777.69;10386082;28;20046;-78
2023/01/09 00:25:25;;;;;;;2.92;1.83;;;;;;;-13.28;84.65;101765.03;10420904;28;20045;-78
2023/01/09 00:30:28;;;;;;;3.30;1.83;;;;;;;-13.24;84.27;101768.31;10412157;28;20051;-78
2023/01/09 00:35:30;;;;;;;1.65;1.55;;;;;;;-13.28;84.62;101756.25;10475348;28;20050;-77
2023/01/09 00:40:33;;;;;;;4.60;2.88;;;;;;;-13.26;84.52;101751.72;10446964;28;20072;-78
2023/01/09 00:45:35;;;;;;;5.13;2.10;;;;;;;-13.27;84.69;101750.88;10445727;28;20037;-76
2023/01/09 00:50:38;;;;;;;3.42;1.38;;;;;;;-13.23;84.71;101731.22;10463898;28;20042;-76
2023/01/09 00:55:40;;;;;;;1.45;1.25;;;;;;;-13.22;85.26;101738.19;10429064;28;20535;-78
2023/01/09 01:00:43;;;;;;;2.60;2.15;;;;;;;-13.19;85.17;101737.16;10443006;28;20064;-77
2023/01/09 01:11:16;;;;;;;7.38;2.38;;;;;;;-13.18;85.11;101713.31;10445567;28;20041;-77
2023/01/09 01:16:19;;;;;;;4.10;2.38;;;;;;;-13.19;85.00;101735.38;10433199;28;20045;-77
2023/01/09 01:21:21;;;;;;;4.43;2.25;;;;;;;-13.18;85.37;101699.25;10424724;28;20038;-77
2023/01/09 01:26:23;;;;;;;4.00;2.30;;;;;;;-13.15;85.64;101701.66;10421667;28;20053;-78
2023/01/09 01:31:25;;;;;;;4.18;2.15;;;;;;;-13.16;85.32;101681.47;10432599;28;20531;-77
2023/01/09 01:36:27;;;;;;;4.40;2.05;;;;;;;-13.13;85.59;101691.84;10443939;28;20583;-77
2023/01/09 01:41:30;;;;;;;4.25;2.47;;;;;;;-13.14;85.42;101696.28;10413565;28;20038;-76
2023/01/09 01:46:33;;;;;;;5.57;3.05;;;;;;;-13.12;85.80;101702.28;10442092;28;20041;-76
2023/01/09 01:51:42;;;;;;;6.25;2.15;;;;;;;-13.09;85.58;101703.88;10437826;28;20053;-76
2023/01/09 01:56:45;;;;;;;;;;;;;;;-13.05;85.55;101694.78;10444546;28;20044;-77
2023/01/09 02:01:50;;;;;;;3.70;1.98;;;;;;;-13.03;85.78;101699.97;10459330;28;20307;-77
2023/01/09 02:06:53;;;;;;;3.55;2.00;;;;;;;-13.03;85.60;101711.38;10425847;28;20099;-78
2023/01/09 02:11:57;;;;;;;3.35;2.28;;;;;;;-13.01;85.89;101712.16;10443888;28;20076;-78
2023/01/09 02:17:25;;;;;;;4.53;2.28;;;;;;;-12.98;85.73;101695.25;10425195;28;20516;-76
2023/01/09 02:22:36;;;;;;;3.13;2.17;;;;;;;-13.00;85.68;101687.44;10436178;28;20050;-76
2023/01/09 02:28:00;;;;;;;3.17;1.60;;;;;;;-12.99;86.14;101675.91;10442540;28;20053;-76
2023/01/09 02:33:20;;;;;;;3.22;2.20;;;;;;;-12.99;86.82;101683.84;10448844;28;20049;-78
2023/01/09 02:38:26;;;;;;;4.75;2.80;;;;;;;-12.94;86.36;101665.88;10447879;28;20045;-75
2023/01/09 02:43:29;;;;;;;1.92;1.45;;;;;;;-12.88;86.18;101672.50;10375960;28;20092;-77
2023/01/09 02:48:31;;;;;;;4.20;1.88;;;;;;;-12.84;87.05;101666.94;10387367;28;20448;-78
2023/01/09 02:53:42;;;;;;;4.20;1.70;;;;;;;-12.81;86.15;101687.03;10402588;28;20054;-78
2023/01/09 02:59:08;;;;;;;5.15;2.53;;;;;;;-12.79;85.88;101661.34;10408363;28;20034;-78
2023/01/09 03:04:26;;;;;;;4.78;3.05;;;;;;;-12.71;86.75;101666.06;10423949;28;20033;-78
2023/01/09 03:09:31;;;;;;;1.40;1.20;;;;;;;-12.65;86.36;101658.59;10406704;28;20038;-79
2023/01/09 03:14:34;;;;;;;5.57;2.53;;;;;;;-12.60;86.63;101661.75;10399242;28;20049;-77
2023/01/09 03:19:36;;;;;;;5.95;1.95;;;;;;;-12.56;85.85;101668.50;10402656;28;20042;-77
2023/01/09 03:24:38;;;;;;;5.22;2.78;;;;;;;-12.50;86.22;101662.78;10417624;28;20394;-79
2023/01/09 03:29:41;;;;;;;3.08;1.63;;;;;;;-12.42;85.62;101651.69;10389295;28;20062;-78
2023/01/09 03:34:43;;;;;;;4.00;1.88;;;;;;;-12.39;85.64;101651.44;10401168;28;20038;-77
2023/01/09 03:39:45;;;;;;;2.65;2.20;;;;;;;-12.35;85.48;101652.06;10395687;28;20045;-78
2023/01/09 03:44:49;;;;;;;4.43;2.28;;;;;;;-12.30;85.15;101660.56;10399671;28;20504;-77
2023/01/09 03:49:51;;;;;;;3.95;2.53;;;;;;;-12.27;85.09;101662.97;10386787;28;20394;-77
2023/01/09 03:54:53;;;;;;;2.80;1.83;;;;;;;-12.24;84.82;101662.75;10404165;28;20052;-76
2023/01/09 03:59:56;;;;;;;2.83;1.83;;;;;;;-12.22;85.24;101666.13;10405103;28;20042;-77
2023/01/09 04:04:58;;;;;;;4.05;2.22;;;;;;;-12.21;85.10;101660.72;10404034;28;20038;-77
2023/01/09 04:10:00;;;;;;;1.80;0.90;;;;;;;-12.20;84.87;101640.41;10389284;28;20061;-79
2023/01/09 04:15:03;;;;;;;2.45;1.77;;;;;;;-12.18;84.97;101651.72;10396646;28;20049;-79
2023/01/09 04:20:05;;;;;;;2.70;1.25;;;;;;;-12.17;84.23;101656.06;10385288;28;20444;-78
2023/01/09 04:25:08;;;;;;;7.72;1.52;;;;;;;-12.12;84.17;101656.59;10400768;28;20038;-78
2023/01/09 04:30:10;;;;;;;1.48;1.05;;;;;;;-12.07;84.60;101645.66;10404250;28;20076;-79
2023/01/09 04:35:12;;;;;;;4.95;1.92;;;;;;;-12.06;84.41;101647.38;10402847;28;20053;-78
2023/01/09 04:40:15;;;;;;;1.98;1.27;;;;;;;-12.09;84.43;101655.53;10419994;28;20049;-79
2023/01/09 04:45:17;;;;;;;2.10;1.33;;;;;;;-12.04;83.74;101642.78;10441798;28;20064;-79
2023/01/09 04:50:19;;;;;;;3.35;1.73;;;;;;;-12.05;83.72;101668.41;10435053;28;20045;-79
2023/01/09 04:55:22;;;;;;;2.70;1.85;;;;;;;-12.05;84.44;101663.13;10442597;28;20045;-78
2023/01/09 05:00:24;;;;;;;3.03;1.50;;;;;;;-12.06;84.22;101650.84;10439262;28;20042;-78
2023/01/09 05:05:26;;;;;;;1.17;1.08;;;;;;;-11.99;83.44;101659.19;10421938;28;20544;-78
2023/01/09 05:10:28;;;;;;;5.00;1.35;;;;;;;-11.99;83.17;101662.66;10417121;28;20038;-78
2023/01/09 05:15:30;;;;;;;3.30;1.85;;;;;;;-11.99;83.56;101652.09;10441632;28;20109;-78
2023/01/09 05:20:58;;;;;;;3.22;1.23;;;;;;;-12.03;83.62;101647.97;10429789;28;20389;-78
2023/01/09 05:26:00;;;;;;;3.85;1.75;;;;;;;-12.01;82.65;101658.44;10435752;28;20049;-79
2023/01/09 05:31:02;;;;;;;5.55;3.47;;;;;;;-12.00;83.34;101666.28;10439587;28;20167;-78
2023/01/09 05:36:06;;;;;;;2.50;1.80;;;;;;;-11.97;82.91;101657.28;10425581;28;20049;-78
2023/01/09 05:41:12;;;;;;;1.17;1.10;;;;;;;-11.93;83.18;101637.59;10436394;28;20049;-78
2023/01/09 05:46:14;;;;;;;3.50;1.80;;;;;;;-11.94;82.45;101642.03;10431301;28;20436;-79
2023/01/09 05:51:16;;;;;;;2.25;1.60;;;;;;;-11.95;82.09;101640.34;10438603;28;20042;-78
2023/01/09 05:56:19;;;;;;;3.72;1.95;;;;;;;-11.92;82.39;101634.81;10443188;28;20071;-78
2023/01/09 06:01:21;;;;;;;2.67;1.70;;;;;;;-11.91;82.06;101640.97;10437027;28;20068;-78
2023/01/09 06:06:24;;;;;;;4.00;2.28;;;;;;;-11.93;82.10;101658.75;10418582;28;20041;-78
2023/01/09 06:11:33;;;;;;;5.38;2.65;;;;;;;-11.91;82.02;101644.44;10434193;28;20048;-79
2023/01/09 06:16:35;;;;;;;2.80;1.80;;;;;;;-11.94;81.74;101631.44;10421723;28;20041;-79
2023/01/09 06:21:41;;;;;;;1.42;1.25;;;;;;;-11.94;82.43;101626.16;10437203;28;20034;-78
2023/01/09 06:26:48;;;;;;;2.78;2.05;;;;;;;-11.93;82.52;101617.25;10417692;28;20423;-79
2023/01/09 06:31:50;;;;;;;5.35;2.28;;;;;;;-11.93;82.51;101621.72;10436382;28;20041;-78
2023/01/09 06:36:57;;;;;;;2.25;1.70;;;;;;;-11.90;81.95;101624.97;10434197;28;20048;-78
2023/01/09 06:41:59;;;;;;;2.72;1.33;;;;;;;-11.86;82.46;101630.88;10425183;28;20049;-78
2023/01/09 06:47:03;;;;;;;2.47;1.73;;;;;;;-11.81;82.72;101647.25;10410895;28;20038;-79
2023/01/09 06:52:06;;;;;;;6.18;2.45;;;;;;;-11.81;82.19;101630.53;10438452;28;20049;-78
2023/01/09 06:57:09;;;;;;;2.20;1.58;;;;;;;-11.79;82.89;101644.53;10438167;28;20041;-77
2023/01/09 07:02:17;;;;;;;5.28;2.55;;;;;;;-11.76;82.67;101639.81;10407100;28;20042;-78
2023/01/09 07:07:21;;;;;;;4.43;2.60;;;;;;;-11.73;82.89;101633.44;10442721;28;20033;-78
2023/01/09 07:12:27;;;;;;;2.97;1.75;;;;;;;-11.74;82.72;101642.34;10430921;28;20057;-77
2023/01/09 07:17:29;;;;;;;1.73;1.52;;;;;;;-11.72;83.18;101657.16;10406447;28;20046;-77
2023/01/09 07:22:31;;;;;;;5.47;2.67;;;;;;;-11.70;83.42;101655.22;10425240;28;20054;-77
2023/01/09 07:27:33;;;;;;;4.18;2.28;;;;;;;-11.65;83.64;101658.38;10436774;28;20420;-78
2023/01/09 07:32:37;;;;;;;2.97;1.23;;;;;;;-11.61;83.07;101643.97;10424565;28;20037;-77
2023/01/09 07:37:39;;;;;;;1.42;1.13;;;;;;;-11.58;83.94;101643.75;10444866;28;20045;-78
2023/01/09 07:42:41;;;;;;;2.72;1.70;;;;;;;-11.52;83.64;101639.78;10424582;28;20049;-78
2023/01/09 07:47:43;;;;;;;5.30;2.72;;;;;;;-11.49;83.29;101641.34;10442199;28;20061;-78
2023/01/09 07:52:46;;;;;;;3.03;2.22;;;;;;;-11.47;83.71;101655.31;10442675;28;20493;-78
2023/01/09 07:57:50;;;;;;;1.55;0.88;;;;;;;-11.42;83.32;101635.50;10444469;28;20042;-79
2023/01/09 08:02:52;;;;;;;3.47;1.90;;;;;;;-11.37;83.43;101637.81;10441654;28;20050;-78
2023/01/09 08:07:55;;;;;;;2.42;1.48;;;;;;;-11.37;83.80;101651.88;10443964;28;20420;-80
2023/01/09 08:12:57;;;;;;;2.42;1.60;;;;;;;-11.34;83.85;101664.06;10442510;28;20060;-79
2023/01/09 08:17:59;;;;;;;4.30;2.45;;;;;;;-11.32;83.71;101655.03;10438831;28;20048;-80
2023/01/09 08:23:01;;;;;;;2.45;1.38;;;;;;;-11.32;83.80;101649.72;10439953;28;20054;-78
2023/01/09 08:28:04;;;;;;;1.48;1.20;;;;;;;-11.28;83.57;101667.13;10422611;28;20053;-81
2023/01/09 08:33:06;;;;;;;4.05;2.17;;;;;;;-11.23;83.54;101687.09;10428968;28;20041;-80
2023/01/09 08:38:08;;;;;;;2.42;1.85;;;;;;;-11.22;84.07;101672.91;10419992;28;20045;-82
2023/01/09 08:48:31;;;;;;;4.40;2.97;;;;;;;-11.22;83.47;101668.44;10444018;28;20056;-81
2023/01/09 08:53:33;;;;;;;4.45;2.65;;;;;;;-11.24;83.51;101666.88;10427444;28;20057;-85
2023/01/09 08:58:36;;;;;;;1.02;0.95;;;;;;;-11.22;83.96;101649.91;10444387;28;20049;-85
2023/01/09 09:03:38;;;;;;;7.97;2.47;;;;;;;-11.22;84.42;101652.56;10429200;28;20033;-84
2023/01/09 09:08:40;;;;;;;0.60;0.60;;;;;;;-11.19;84.12;101635.56;10448909;28;20034;-83
2023/01/09 09:13:42;;;;;;;2.15;1.35;;;;;;;-11.18;83.73;101651.34;10446121;28;20411;-83
2023/01/09 09:18:44;;;;;;;2.53;1.40;;;;;;;-11.14;83.86;101662.56;10436419;28;20396;-83
2023/01/09 09:23:47;;;;;;;5.70;2.92;;;;;;;-11.14;83.51;101657.25;10416115;28;20053;-84
2023/01/09 09:28:49;;;;;;;3.15;2.08;;;;;;;-11.16;84.08;101653.88;10445314;28;20045;-84
2023/01/09 09:33:51;;;;;;;4.07;2.03;;;;;;;-11.14;84.30;101651.94;10435316;28;20049;-83
2023/01/09 09:38:54;;;;;;;2.70;1.48;;;;;;;-11.10;83.84;101656.09;10439517;28;20053;-81
2023/01/09 09:49:38;;;;;;;7.50;1.98;;;;;;;-10.97;83.56;101662.97;10431591;28;20045;-83
2023/01/09 09:54:46;;;;;;;2.75;2.13;;;;;;;-10.97;83.28;101643.56;10445639;28;20057;-78
2023/01/09 09:59:50;;;;;;;5.47;2.80;;;;;;;-10.97;82.97;101632.97;10443002;28;20519;-77
2023/01/09 10:05:00;;;;;;;5.95;3.13;;;;;;;-10.97;83.03;101647.06;10410354;28;20136;-77
2023/01/09 10:10:04;;;;;;;2.72;1.25;;;;;;;-11.00;83.11;101638.50;10444682;28;20851;-83
2023/01/09 10:15:16;;;;;;;5.60;2.83;;;;;;;-10.94;83.67;101611.53;10444004;28;20045;-77
2023/01/09 10:20:45;;;;;;;4.53;2.08;;;;;;;-10.90;82.87;101636.84;10438478;28;20388;-77
2023/01/09 10:26:17;;;;;;;3.63;1.98;;;;;;;-10.88;82.98;101611.06;10395043;28;20663;-78
2023/01/09 10:31:35;;;;;;;4.75;2.15;;;;;;;-10.86;83.37;101614.44;10438159;28;20052;-77
2023/01/09 10:37:09;;;;;;;2.30;1.73;;;;;;;-10.84;83.89;101612.50;10439993;28;20425;-76
2023/01/09 10:42:30;;;;;;;3.70;1.90;;;;;;;-10.83;82.95;101608.91;10371036;28;20053;-78
2023/01/09 10:47:36;;;;;;;4.90;2.85;;;;;;;-10.80;82.77;101624.56;10406428;28;20054;-78
2023/01/09 10:52:40;;;;;;;5.53;2.70;;;;;;;-10.81;83.27;101591.06;10419645;28;20061;-77
2023/01/09 10:57:45;;;;;;;6.10;2.58;;;;;;;-10.77;83.30;101589.00;10410374;28;20052;-76
2023/01/09 11:02:47;;;;;;;5.63;2.67;;;;;;;-10.79;83.21;101590.94;10449084;28;20048;-78
2023/01/09 11:07:57;;;;;;;3.45;2.33;;;;;;;-10.76;83.77;101606.59;10424281;28;20504;-76
2023/01/09 11:13:45;;;;;;;2.00;1.25;;;;;;;-10.73;83.48;101579.88;10422128;28;20060;-76
2023/01/09 11:18:51;;;;;;;2.55;1.65;;;;;;;-10.71;84.06;101578.78;10428831;28;20053;-75
2023/01/09 11:23:54;;;;;;;2.60;1.77;;;;;;;-10.66;83.41;101583.72;10450023;28;20046;-77
2023/01/09 11:29:10;;;;;;;4.18;2.50;;;;;;;-10.63;83.85;101587.94;10441004;28;20053;-75
2023/01/09 11:34:17;;;;;;;5.03;2.42;;;;;;;-10.60;83.77;101596.47;10426434;28;20050;-80
2023/01/09 11:39:24;;;;;;;5.38;2.10;;;;;;;-10.57;84.10;101598.06;10446154;28;20120;-79
2023/01/09 11:44:27;;;;;;;3.80;2.08;;;;;;;-10.57;84.15;101590.13;10446525;28;20404;-78
2023/01/09 11:49:30;;;;;;;6.80;2.75;;;;;;;-10.58;83.70;101607.84;10449695;28;20057;-78
2023/01/09 11:54:34;;;;;;;3.15;1.63;;;;;;;-10.55;84.01;101601.44;10442693;28;20053;-77
2023/01/09 11:59:36;;;;;;;4.95;2.20;;;;;;;-10.55;83.78;101591.69;10448605;28;20044;-77
2023/01/09 12:05:00;;;;;;;4.03;1.67;;;;;;;-10.51;84.61;101594.91;10445608;28;20504;-77
2023/01/09 12:10:08;;;;;;;2.83;2.33;;;;;;;-10.51;84.40;101574.53;10429619;28;20052;-82
2023/01/09 12:15:23;;;;;;;3.63;2.13;;;;;;;-10.52;84.07;101566.72;10445698;28;20042;-77
2023/01/09 12:20:49;;;;;;;4.22;2.45;;;;;;;-10.51;84.68;101569.25;10446490;28;20455;-75
2023/01/09 12:26:22;;;;;;;5.45;2.88;;;;;;;-10.50;84.44;101572.72;10443065;28;20107;-74
2023/01/09 12:31:30;;;;;;;4.38;2.28;;;;;;;-10.52;84.59;101554.28;10426264;28;20053;-75
2023/01/09 12:37:03;;;;;;;7.88;3.05;;;;;;;-10.52;84.94;101551.63;10443014;28;20049;-77
2023/01/09 12:42:41;;;;;;;3.92;2.45;;;;;;;-10.55;84.93;101548.41;10443672;28;20496;-75
2023/01/09 12:47:45;;;;;;;1.33;1.23;;;;;;;-10.58;85.44;101541.53;10443919;28;20053;-74
2023/01/09 12:53:20;;;;;;;5.93;3.17;;;;;;;-10.61;85.52;101548.88;10458225;28;20296;-75
2023/01/09 12:58:35;;;;;;;4.57;3.10;;;;;;;-10.68;85.92;101541.41;10443015;28;20060;-74
2023/01/09 13:03:43;;;;;;;3.95;2.28;;;;;;;-10.72;85.79;101532.03;10457731;28;20033;-75
2023/01/09 13:09:26;;;;;;;4.03;2.30;;;;;;;-10.72;85.17;101553.22;10453821;28;20038;-75
2023/01/09 13:14:56;;;;;;;3.75;2.03;;;;;;;-10.74;85.19;101549.84;10440266;28;20563;-76
2023/01/09 13:19:58;;;;;;;4.18;2.65;;;;;;;-10.74;85.41;101541.06;10444896;28;20034;-76
2023/01/09 13:25:14;;;;;;;4.82;2.38;;;;;;;-10.74;85.20;101541.06;10443680;28;20120;-76
2023/01/09 13:30:38;;;;;;;2.78;2.28;;;;;;;-10.73;85.06;101525.03;10455924;28;20059;-75
2023/01/09 13:35:49;;;;;;;5.95;3.53;;;;;;;-10.72;85.86;101532.03;10442477;28;20428;-75
2023/01/09 13:42:34;;;;;;;8.20;2.88;;;;;;;-10.70;85.52;101539.84;10434804;28;20516;-79
2023/01/09 13:46:42;;;;;;;5.95;3.25;;;;;;;-10.72;85.40;101536.47;10408836;28;20033;-80
2023/01/09 13:51:47;;;;;;;2.90;2.30;;;;;;;-10.76;85.56;101541.19;10420702;28;20468;-81
2023/01/09 13:57:17;;;;;;;6.00;1.98;;;;;;;-10.79;85.02;101520.19;10420952;28;20053;-79
2023/01/09 14:02:37;;;;;;;4.55;2.05;;;;;;;-10.80;84.58;101525.63;10418528;28;20045;-78
2023/01/09 14:07:48;;;;;;;4.45;3.22;;;;;;;-10.77;84.83;101526.22;10392903;28;20353;-81
2023/01/09 14:12:53;;;;;;;6.47;3.28;;;;;;;-10.73;84.38;101518.88;10412124;28;20073;-82
2023/01/09 14:18:03;;;;;;;4.63;2.25;;;;;;;-10.72;83.72;101534.66;10403346;28;20053;-79
2023/01/09 14:23:06;;;;;;;5.05;2.70;;;;;;;-10.70;83.18;101511.53;10422104;28;20037;-79
2023/01/09 14:28:19;;;;;;;7.78;3.63;;;;;;;-10.69;81.80;101520.31;10418172;28;20056;-78
2023/01/09 14:33:22;;;;;;;7.22;3.17;;;;;;;-10.66;81.62;101528.03;10406978;28;20057;-80
2023/01/09 14:38:30;;;;;;;4.57;2.67;;;;;;;-10.65;81.00;101501.38;10339376;28;2065348;-80
2023/01/09 14:43:39;;;;;;;2.50;1.92;;;;;;;-10.68;80.26;101496.34;10406601;28;20048;-77
2023/01/09 14:49:05;;;;;;;8.57;2.92;;;;;;;-10.62;80.10;101488.84;10409962;28;20050;-78
2023/01/09 14:54:30;;;;;;;2.50;1.48;;;;;;;-10.65;80.06;101485.47;10389137;28;20058;-78
2023/01/09 14:59:32;;;;;;;3.92;2.75;;;;;;;-10.70;79.18;101497.44;10392824;28;20050;-73
2023/01/09 15:04:37;;;;;;;6.88;2.75;;;;;;;-10.74;78.56;101502.13;10400685;28;20111;-78
2023/01/09 15:09:45;;;;;;;6.75;2.90;;;;;;;-10.75;78.80;101508.41;10395508;28;20045;-76
2023/01/09 15:14:52;;;;;;;3.42;1.98;;;;;;;-10.79;78.25;101490.19;10378790;28;20050;-79
2023/01/09 15:19:55;;;;;;;4.93;2.40;;;;;;;-10.83;78.46;101494.06;10400554;28;20046;-78
2023/01/09 15:25:26;;;;;;;2.10;1.60;;;;;;;-10.86;78.11;101481.06;10414921;28;20033;-77
2023/01/09 15:30:34;;;;;;;5.78;2.78;;;;;;;-10.88;77.67;101494.44;10399726;28;20049;-74
2023/01/09 15:35:43;;;;;;;6.03;2.83;;;;;;;-10.90;77.88;101490.22;10400215;28;20052;-79
2023/01/09 15:40:58;;;;;;;3.90;1.88;;;;;;;-10.88;78.13;101494.44;10395147;28;20512;-78
2023/01/09 15:46:01;;;;;;;7.90;4.10;;;;;;;-10.85;76.94;101494.19;10388797;28;20045;-80
2023/01/09 15:51:17;;;;;;;10.65;5.10;;;;;;;-10.82;77.05;101495.75;10406027;28;20056;-80
2023/01/09 15:56:29;;;;;;;7.78;4.50;;;;;;;-10.80;76.69;101496.47;10405724;28;20069;-82
2023/01/09 16:01:37;;;;;;;7.15;3.60;;;;;;;-10.78;76.96;101479.47;10404404;28;20033;-76
2023/01/09 16:06:50;;;;;;;2.75;1.63;;;;;;;-10.77;76.30;101517.41;10388365;28;20425;-75
2023/01/09 16:11:59;;;;;;;6.00;2.88;;;;;;;-10.77;76.51;101507.66;10404625;28;20038;-75
2023/01/09 16:17:06;;;;;;;3.38;2.53;;;;;;;-10.75;75.98;101489.84;10406117;28;20058;-76
2023/01/09 16:22:32;;;;;;;3.85;2.78;;;;;;;-10.73;75.90;101503.81;10388146;28;20038;-75
2023/01/09 16:27:34;;;;;;;4.80;2.67;;;;;;;-10.69;75.49;101512.38;10401382;28;20052;-75
2023/01/09 16:32:50;;;;;;;5.45;2.72;;;;;;;-10.66;75.74;101512.97;10403569;28;20050;-76
2023/01/09 16:37:56;;;;;;;5.40;3.30;;;;;;;-10.60;74.65;101492.22;10394149;28;20058;-83
2023/01/09 16:43:04;;;;;;;4.95;2.42;;;;;;;-10.62;74.83;101502.09;10431322;28;20046;-75
2023/01/09 16:48:15;;;;;;;5.18;2.60;;;;;;;-10.58;74.98;101512.38;10419882;28;20045;-76
2023/01/09 16:53:26;;;;;;;4.03;2.47;;;;;;;-10.59;74.43;101502.69;10440091;28;20094;-74
2023/01/09 16:58:30;;;;;;;3.92;2.05;;;;;;;-10.58;74.70;101500.91;10425158;28;20053;-75
2023/01/09 17:03:33;;;;;;;4.18;2.00;;;;;;;-10.58;74.33;101493.78;10441101;28;20049;-76
2023/01/09 17:08:36;;;;;;;4.85;2.58;;;;;;;-10.56;74.04;101525.50;10442265;28;20424;-77
2023/01/09 17:13:38;;;;;;;4.35;2.20;;;;;;;-10.57;73.93;101499.94;10435182;28;20061;-76
2023/01/09 17:18:41;;;;;;;4.22;2.38;;;;;;;-10.55;73.39;101505.97;10437886;28;20041;-74
2023/01/09 17:23:44;;;;;;;4.63;2.53;;;;;;;-10.58;73.12;101508.88;10440844;28;20048;-74
2023/01/09 17:28:48;;;;;;;4.20;2.47;;;;;;;-10.63;73.20;101514.53;10403966;28;20041;-74
2023/01/09 17:33:51;;;;;;;2.90;2.03;;;;;;;-10.66;73.07;101515.63;10442692;28;20046;-74
2023/01/09 17:38:53;;;;;;;2.92;1.90;;;;;;;-10.68;72.99;101516.69;10439295;28;20056;-73
2023/01/09 17:43:57;;;;;;;7.00;2.95;;;;;;;-10.65;73.61;101541.16;10434310;28;20049;-74
2023/01/09 17:49:00;;;;;;;2.92;1.73;;;;;;;-10.70;72.89;101506.22;10440154;28;20053;-74
2023/01/09 17:54:02;;;;;;;4.60;2.70;;;;;;;-10.68;72.77;101516.69;10442516;28;20045;-76
2023/01/09 17:59:08;;;;;;;4.32;2.38;;;;;;;-10.71;72.48;101511.66;10414771;28;20542;-77
2023/01/09 18:04:11;;;;;;;5.30;2.53;;;;;;;-10.74;73.22;101523.34;10437707;28;20053;-72
2023/01/09 18:09:15;;;;;;;2.85;1.98;;;;;;;-10.75;73.11;101516.38;10441025;28;20053;-75
2023/01/09 18:14:18;;;;;;;8.65;2.88;;;;;;;-10.76;72.54;101524.41;10421674;28;20057;-74
2023/01/09 18:19:20;;;;;;;4.50;3.45;;;;;;;-10.80;73.00;101502.59;10441369;28;20048;-74
2023/01/09 18:24:22;;;;;;;5.35;2.50;;;;;;;-10.82;73.08;101501.88;10435823;28;20034;-77
2023/01/09 18:29:24;;;;;;;3.60;1.88;;;;;;;-10.81;72.57;101500.91;10435100;28;20034;-72
2023/01/09 18:34:27;;;;;;;2.08;1.55;;;;;;;-10.78;72.63;101511.28;10421982;28;20060;-72
2023/01/09 18:39:29;;;;;;;0.82;0.55;;;;;;;-10.76;73.41;101508.50;10448311;28;20045;-72
2023/01/09 18:44:31;;;;;;;4.85;2.30;;;;;;;-10.71;73.28;101509.84;10424716;28;20054;-73
2023/01/09 18:49:34;;;;;;;2.55;2.13;;;;;;;-10.66;72.51;101499.69;10413441;28;20030;-74
2023/01/09 18:54:37;;;;;;;4.43;2.55;;;;;;;-10.59;72.74;101512.47;10416445;28;20049;-72
2023/01/09 18:59:39;;;;;;;5.50;1.98;;;;;;;-10.59;72.56;101510.66;10413169;28;20041;-72
2023/01/09 19:04:41;;;;;;;2.70;1.65;;;;;;;-10.56;72.24;101504.28;10432685;28;20428;-78
2023/01/09 19:09:44;;;;;;;5.00;3.47;;;;;;;-10.58;71.91;101514.16;10440079;28;20038;-73
2023/01/09 19:14:46;;;;;;;4.45;2.30;;;;;;;-10.57;71.71;101497.28;10430905;28;20075;-77
2023/01/09 19:19:48;;;;;;;2.47;1.88;;;;;;;-10.53;71.83;101504.03;10419853;28;20068;-78
2023/01/09 19:24:51;;;;;;;5.60;1.90;;;;;;;-10.55;72.13;101501.50;10439949;28;20050;-73
2023/01/09 19:29:53;;;;;;;10.27;4.40;;;;;;;-10.55;71.68;101480.28;10438851;28;20045;-73
2023/01/09 19:34:55;;;;;;;3.88;2.63;;;;;;;-10.52;71.88;101484.50;10448880;28;20536;-72
2023/01/09 19:39:58;;;;;;;1.52;1.40;;;;;;;-10.49;72.07;101481.59;10443930;28;20523;-74
2023/01/09 19:45:04;;;;;;;9.35;5.45;;;;;;;-10.52;71.48;101487.16;10428173;28;20045;-74
2023/01/09 19:50:07;;;;;;;7.75;4.03;;;;;;;-10.50;71.35;101503.78;10451076;28;20037;-74
2023/01/09 19:55:12;;;;;;;8.25;5.18;;;;;;;-10.45;71.34;101490.97;10444441;28;20077;-74
2023/01/09 20:00:15;;;;;;;8.60;5.30;;;;;;;-10.41;71.40;101495.09;10470962;28;20531;-77
2023/01/09 20:05:17;;;;;;;7.47;4.25;;;;;;;-10.43;71.11;101500.50;10425362;28;20040;-75
2023/01/09 20:10:21;;;;;;;7.97;4.22;;;;;;;-10.43;71.13;101497.84;10449072;28;20052;-77
2023/01/09 20:15:24;;;;;;;7.88;5.07;;;;;;;-10.39;70.72;101536.44;10484358;28;20044;-77
2023/01/09 20:20:26;;;;;;;7.38;4.30;;;;;;;-10.37;71.38;101504.47;10439424;28;20044;-75
2023/01/09 20:25:29;;;;;;;8.32;4.22;;;;;;;-10.40;70.81;101512.69;10426475;28;20415;-76
2023/01/09 20:30:33;;;;;;;11.35;4.25;;;;;;;-10.38;70.78;101529.31;10430514;28;20038;-77
2023/01/09 20:35:35;;;;;;;8.60;5.10;;;;;;;-10.36;70.59;101532.69;10419463;28;20535;-74
2023/01/09 20:40:38;;;;;;;8.85;4.75;;;;;;;-10.35;70.67;101535.22;10422126;28;20037;-75
2023/01/09 20:45:42;;;;;;;8.43;4.95;;;;;;;-10.32;70.30;101538.59;10462381;28;20405;-74
2023/01/09 20:50:44;;;;;;;8.20;5.05;;;;;;;-10.32;70.79;101544.72;10428934;28;20041;-74
2023/01/09 20:55:46;;;;;;;6.35;3.65;;;;;;;-10.35;70.31;101515.81;10440423;28;20036;-74
2023/01/09 21:00:50;;;;;;;11.55;6.25;;;;;;;-10.38;70.43;101540.78;10449070;28;20045;-73
2023/01/09 21:05:53;;;;;;;8.20;5.45;;;;;;;-10.40;71.01;101532.09;10425014;28;20060;-74
2023/01/09 21:10:56;;;;;;;10.57;5.20;;;;;;;-10.40;70.27;101529.44;10396071;28;20048;-75
2023/01/09 21:16:00;;;;;;;11.63;5.72;;;;;;;-10.38;70.19;101514.25;10446218;28;20107;-74
2023/01/09 21:21:04;;;;;;;8.45;4.60;;;;;;;-10.42;70.59;101518.09;10460610;28;20056;-76
2023/01/09 21:26:09;;;;;;;10.15;4.88;;;;;;;-10.41;70.86;101503.88;10409459;28;20041;-77
2023/01/09 21:31:12;;;;;;;10.70;7.47;;;;;;;-10.40;70.12;101515.34;10432217;28;20045;-75
2023/01/09 21:36:16;;;;;;;7.70;5.00;;;;;;;-10.38;70.14;101500.13;10414044;28;20608;-74
2023/01/09 21:46:50;;;;;;;12.80;7.18;;;;;;;-10.41;70.23;101521.63;10426063;28;20041;-75
2023/01/09 21:51:53;;;;;;;10.43;6.25;;;;;;;-10.41;70.68;101511.00;10425524;28;20484;-73
2023/01/09 21:56:56;;;;;;;10.68;5.43;;;;;;;-10.39;70.15;101509.91;10396630;28;20115;-74
2023/01/09 22:01:58;;;;;;;10.30;5.32;;;;;;;-10.38;70.19;101505.44;10431957;28;20056;-72
2023/01/09 22:07:01;;;;;;;11.88;6.25;;;;;;;-10.39;70.14;101509.91;10429149;28;20050;-74
2023/01/09 22:12:03;;;;;;;13.75;7.90;;;;;;;-10.38;70.74;101524.84;10423820;28;20053;-74
2023/01/09 22:17:05;;;;;;;13.18;6.70;;;;;;;-10.34;70.59;101514.84;10421026;28;20057;-73
2023/01/09 22:22:08;;;;;;;12.82;6.57;;;;;;;-10.33;70.37;101516.50;10436952;28;20041;-75
2023/01/09 22:27:10;;;;;;;11.90;6.28;;;;;;;-10.37;70.18;101505.31;10393853;28;20053;-75
2023/01/09 22:32:12;;;;;;;11.07;5.47;;;;;;;-10.36;70.57;101495.53;10426244;28;20393;-73
2023/01/09 22:37:15;;;;;;;10.57;6.35;;;;;;;-10.37;70.97;101499.16;10406566;28;20041;-76
2023/01/09 22:42:17;;;;;;;10.95;6.07;;;;;;;-10.41;71.01;101503.03;10435140;28;20057;-75
2023/01/09 22:47:20;;;;;;;12.35;6.65;;;;;;;-10.43;70.76;101499.66;10421477;28;20527;-75
2023/01/09 22:52:23;;;;;;;11.93;6.25;;;;;;;-10.46;70.85;101506.03;10428364;28;20045;-74
2023/01/09 22:57:25;;;;;;;12.52;6.68;;;;;;;-10.49;70.71;101497.50;10407732;28;20052;-74
2023/01/09 23:02:27;;;;;;;11.10;6.38;;;;;;;-10.45;70.72;101501.59;10421093;28;20037;-75
2023/01/09 23:07:30;;;;;;;11.82;6.85;;;;;;;-10.47;70.74;101488.44;10401510;28;20033;-76
2023/01/09 23:12:32;;;;;;;11.27;6.40;;;;;;;-10.51;70.86;101481.72;10444392;28;20033;-75
2023/01/09 23:17:34;;;;;;;10.93;6.80;;;;;;;-10.56;70.72;101496.31;10433731;28;20049;-75
2023/01/09 23:22:36;;;;;;;10.13;5.75;;;;;;;-10.55;71.33;101482.09;10449745;28;20068;-77
2023/01/09 23:27:39;;;;;;;9.25;5.90;;;;;;;-10.57;71.00;101484.03;10450738;28;20048;-76
2023/01/09 23:32:43;;;;;;;10.95;6.78;;;;;;;-10.57;71.06;101482.22;10449972;28;20044;-76